logo tempoitalia

Diretta Meteo Murcia-Alcantarilla, Spagnavenerdì 19 luglio ore 08:00

Mappa
Sereno 22 °C Sereno 24 Ore: T.min 22 T.max 36
Ponente Sud/Sud-Ovest Km/h 7.4 Punto di rugiada: 15 °C Umidità: 64% Visibilità: 10 Km
Il sole sorge alle: 06:56 Il sole tramonta alle: 21:26
19 Luglio 2024 08:00 tempo osservato: Sereno Sereno 22 64 1018 vento: Nord S/SO 7.4
19 Luglio 2024 07:30 tempo osservato: Sereno Sereno 22 64 1017 vento: Nord N 3.7
19 Luglio 2024 07:00 tempo osservato: Sereno Sereno 22 64 1017 vento: Nord N 3.7
18 Luglio 2024 20:00 tempo osservato: Sereno Sereno 33 24 1016 vento: Nord E/NE 20.3
18 Luglio 2024 19:30 tempo osservato: Sereno Sereno 34 24 1016 vento: Nord E/NE 24
18 Luglio 2024 19:00 tempo osservato: Sereno Sereno 34 24 1016 vento: Nord E/NE 22.2
18 Luglio 2024 18:30 tempo osservato: Sereno Sereno 35 23 1016 vento: Nord E/NE 18.5
18 Luglio 2024 18:00 tempo osservato: Sereno Sereno 35 21 1016 vento: Nord NE 20.3
18 Luglio 2024 17:30 tempo osservato: Sereno Sereno 35 23 1016 vento: Nord NE 18.5
18 Luglio 2024 17:00 tempo osservato: Sereno Sereno 36 22 1016 vento: Nord E/NE 18.5
18 Luglio 2024 16:30 tempo osservato: Sereno Sereno 34 26 1017 vento: Nord NE 22.2
18 Luglio 2024 16:00 tempo osservato: Sereno Sereno 35 28 1017 vento: Nord NE 20.3
18 Luglio 2024 15:30 tempo osservato: Sereno Sereno 34 32 1017 vento: Nord E/NE 14.8
18 Luglio 2024 15:00 tempo osservato: Sereno Sereno 34 38 1018 vento: Nord NE 16.7
18 Luglio 2024 14:30 tempo osservato: Sereno Sereno 33 38 1018 vento: Nord NE 16.7
18 Luglio 2024 14:00 tempo osservato: Sereno Sereno 33 41 1018 vento: Nord NE 13
18 Luglio 2024 13:30 tempo osservato: Sereno Sereno 32 43 1018 vento: Nord E/NE 11.1
18 Luglio 2024 13:00 tempo osservato: Sereno Sereno 31 45 1018 vento: Nord NE 9.3
18 Luglio 2024 12:30 tempo osservato: Sereno Sereno 31 48 1018 vento: Nord NE 11.1
18 Luglio 2024 12:00 tempo osservato: Sereno Sereno 29 54 1019 vento: Nord NE 14.8
18 Luglio 2024 11:30 tempo osservato: Sereno Sereno 29 51 1019 vento: Nord NE 13
18 Luglio 2024 11:00 tempo osservato: Sereno Sereno 28 54 1019 vento: Nord E/NE 13
18 Luglio 2024 10:00 tempo osservato: Sereno Sereno 27 57 1019 vento: Nord N 1.8
18 Luglio 2024 09:30 tempo osservato: Sereno Sereno 26 65 1019 vento: Nord N 1.8
18 Luglio 2024 09:00 tempo osservato: Sereno Sereno 26 65 1019 vento: Nord N 0